Sunday, July 22, 2018, 12:47 AM EDT
Back to Local

KBDR, Sikorsky Memorial Airport

Location: Stratford, CT, United States Lat: 41.167
Local Time: 12:47 AM EDT ( 4:47 GMT) Lon: -73.133
Time Zone: US/Eastern Elev: 9 ft

Show me the last for .
Show Decoded

2018-07-21 23:52 METAR KBDR 220352Z AUTO 08024G29KT 10SM OVC008 20/19 A2996 RMK AO2 PK WND
                 09031/0302 RAE52 CIG 006V010 SLP145 P0002 T02000189 =
2018-07-21 23:16 METAR KBDR 220316Z AUTO 09022G28KT 4SM -RA BR OVC009 20/18 A2998 =
2018-07-21 22:52 METAR KBDR 220252Z AUTO 09022KT 10SM -RA OVC013 20/18 A2999 RMK AO2 PK WND
                 09031/0229 RAB00 SLP154 P0000 60000 T02000183 56013 =
2018-07-21 21:52 METAR KBDR 220152Z 08022G30KT 10SM OVC023 21/17 A3000 RMK AO2 PK WND 09030/0148
                 RAB19E29 SLP159 P0000 T02060167 =
2018-07-21 21:06 METAR KBDR 220106Z 07018G27KT 10SM OVC028 21/16 A3001 RMK AO2 PK WND 07027/0059
                 T02110161 =
2018-07-21 20:52 METAR KBDR 220052Z 08021G27KT 10SM OVC030 21/16 A3001 RMK AO2 PK WND 09027/0037
                 SLP162 T02110161 =
2018-07-21 19:52 METAR KBDR 212352Z 08017KT 10SM FEW013 OVC037 21/17 A3003 RMK AO2 PK WND
                 09026/2322 SLP167 T02110172 10239 20206 56012 =
2018-07-21 18:52 METAR KBDR 212252Z 08019KT 10SM BKN049 21/17 A3004 RMK AO2 SLP171 T02110167 =
2018-07-21 17:52 METAR KBDR 212152Z 08016KT 10SM CLR 21/17 A3004 RMK AO2 SLP172 T02110167 =
2018-07-21 16:52 METAR KBDR 212052Z 09016KT 10SM SCT013 22/17 A3006 RMK AO2 SLP179 T02170167
                 56011 =
2018-07-21 15:52 METAR KBDR 211952Z 09016KT 10SM CLR 22/17 A3006 RMK AO2 SLP180 T02170167 =
2018-07-21 14:52 METAR KBDR 211852Z 08016KT 10SM CLR 22/17 A3008 RMK AO2 SLP186 T02220167 =
2018-07-21 13:52 METAR KBDR 211752Z 09016KT 10SM CLR 23/17 A3009 RMK AO2 SLP190 T02330167 10244
                 20217 57014 =
2018-07-21 12:52 METAR KBDR 211652Z 08017KT 10SM CLR 24/16 A3011 RMK AO2 SLP194 T02390161 =
2018-07-21 11:52 METAR KBDR 211552Z 08014KT 10SM CLR 23/16 A3012 RMK AO2 SLP200 T02330156 =
2018-07-21 10:52 METAR KBDR 211452Z 09013KT 10SM CLR 23/13 A3013 RMK AO2 SLP204 T02280128 53008 =
2018-07-21 09:52 METAR KBDR 211352Z 09011KT 10SM CLR 22/13 A3012 RMK AO2 SLP199 T02220128 =
2018-07-21 08:52 METAR KBDR 211252Z 10013KT 10SM CLR 22/13 A3012 RMK AO2 SLP199 T02220133 =
2018-07-21 07:52 METAR KBDR 211152Z 11009KT 10SM CLR 22/14 A3011 RMK AO2 SLP196 T02170144 10217
                 20183 55001 =
2018-07-21 06:52 METAR KBDR 211052Z 02006KT 10SM BKN032 20/17 A3011 RMK AO2 SLP195 T02000167 =
2018-07-21 05:52 METAR KBDR 210952Z AUTO 01006KT 10SM SCT033 18/16 A3011 RMK AO2 SLP197 T01830161
                 =
2018-07-21 04:52 METAR KBDR 210852Z AUTO 02005KT 10SM CLR 19/16 A3012 RMK AO2 SLP198 T01890161
                 55002 =
2018-07-21 03:52 METAR KBDR 210752Z AUTO 02004KT 10SM CLR 19/17 A3011 RMK AO2 SLP197 T01890167 =
2018-07-21 02:52 METAR KBDR 210652Z AUTO 12003KT 10SM CLR 20/17 A3011 RMK AO2 SLP195 T02000167 =
2018-07-21 01:52 METAR KBDR 210552Z AUTO 17005KT 10SM CLR 21/17 A3012 RMK AO2 SLP199 T02110167
                 10244 20206 58005 =
2018-07-21 00:52 METAR KBDR 210452Z AUTO 15003KT 10SM CLR 21/16 A3012 RMK AO2 SLP200 T02060161
                 402720172 =

Support USWX by starting your Amazon purchase here.